Adriatic Sea — WDB5553 — position and weather

sailwx.info

Track history (hours):
 
Tides and Currents Weather Stations Pressure Air Temp Water Temp Dewpoint Dewpoint Depression Visibility Wind Speed Wind Dir Waves Ship Positions

Adriatic Sea

Owner: Kirby Offshore Marine, LLC, Seattle, WA. More information available from US FCC via Universal Licensing System and Coast Guard Vessel Documentation Center.

Last reported at 2016-Aug-10 21:08 UTC. Time now 2016-Aug-30 07:28 UTC.
Position N 32°15' W 117°23'.
Warning: this ship's position is 19 days out of date.

Length 42 m; draft 4.7 m.

Type: . MMSI: 366910890.

Date/timePositionNaut miles runAvg speedWind from/ knotsBaromVisibWave heightAir tempDewpointWater temp
2016-Aug-10 21:08N 32°15' W 117°23'6 6.8
2016-Aug-10 20:17N 32°21' W 117°22'5 7.3
2016-Aug-10 19:33N 32°26' W 117°22'14 7.0
2016-Aug-10 17:33N 32°39' W 117°13'5 5.0
2016-Aug-10 16:33N 32°43' W 117°11'0 0.1
2016-Aug-10 15:33N 32°43' W 117°11'0 0.1
2016-Aug-10 14:33N 32°43' W 117°11'0 0.1
2016-Aug-10 13:33N 32°43' W 117°11'0 0.1
2016-Aug-10 12:33N 32°43' W 117°11'0 0.1
2016-Aug-10 11:33N 32°43' W 117°11'0 0.0
2016-Aug-10 10:33N 32°43' W 117°11'0 0.1
2016-Aug-10 09:33N 32°43' W 117°11'0 0.1
2016-Aug-10 08:33N 32°43' W 117°11'0 0.0
2016-Aug-10 07:33N 32°43' W 117°11'0 0.1
2016-Aug-10 06:33N 32°43' W 117°11'0 0.1
2016-Aug-10 04:30N 32°43' W 117°11'0 0.0
2016-Aug-10 03:33N 32°43' W 117°11'0 0.0
2016-Aug-10 02:33N 32°43' W 117°11'0 0.0
2016-Aug-10 01:33N 32°43' W 117°11'0 0.0
2016-Aug-10 00:33N 32°43' W 117°11'0 0.0
2016-Aug-09 23:33N 32°43' W 117°11'0 0.0
2016-Aug-09 22:33N 32°43' W 117°11'0 0.0
2016-Aug-09 21:33N 32°43' W 117°11'0 0.0
2016-Aug-09 20:33N 32°43' W 117°11'0 0.1
2016-Aug-09 19:33N 32°43' W 117°11'0 0.0
2016-Aug-09 18:33N 32°43' W 117°11'0 0.0
2016-Aug-09 15:31N 32°43' W 117°11'0 0.0
2016-Aug-09 14:31N 32°43' W 117°11'0 0.1
2016-Aug-09 13:31N 32°43' W 117°11'0 0.1
2016-Aug-09 12:31N 32°43' W 117°11'0 0.1
2016-Aug-09 11:31N 32°43' W 117°11'0 0.1
2016-Aug-09 10:31N 32°43' W 117°11'0 0.1
2016-Aug-09 09:31N 32°43' W 117°11'0 0.0
2016-Aug-09 08:28N 32°43' W 117°11'0 0.0
2016-Aug-09 07:31N 32°43' W 117°11'0 0.0
2016-Aug-09 04:31N 32°43' W 117°11'0 0.0
2016-Aug-09 03:31N 32°43' W 117°11'0 0.1
2016-Aug-09 02:31N 32°43' W 117°11'0 0.0
2016-Aug-09 01:28N 32°43' W 117°11'0 0.0
2016-Aug-09 00:31N 32°43' W 117°11'0 0.0
2016-Aug-08 23:31N 32°43' W 117°11'0 0.0
2016-Aug-08 22:31N 32°43' W 117°11'0 0.0
2016-Aug-08 21:25N 32°43' W 117°11'0 0.0
2016-Aug-08 20:31N 32°43' W 117°11'0 0.1
2016-Aug-08 19:31N 32°43' W 117°11'0 0.0
2016-Aug-08 18:34N 32°43' W 117°11'0 0.0
2016-Aug-08 17:33N 32°43' W 117°11'0 0.0
2016-Aug-08 16:30N 32°43' W 117°11'0 0.0
2016-Aug-08 15:30N 32°43' W 117°11'0 0.0
2016-Aug-08 14:33N 32°43' W 117°11'0 0.0
2016-Aug-08 13:18N 32°43' W 117°11'0 0.0
2016-Aug-08 12:33N 32°43' W 117°11'0 0.0
2016-Aug-08 11:30N 32°43' W 117°11'0 0.1
2016-Aug-08 10:33N 32°43' W 117°11'0 0.0
2016-Aug-08 09:33N 32°43' W 117°11'0 0.0
2016-Aug-08 08:33N 32°43' W 117°11'0 0.1
2016-Aug-08 07:33N 32°43' W 117°11'0 0.0
2016-Aug-08 06:30N 32°43' W 117°11'0 0.1
2016-Aug-08 05:33N 32°43' W 117°11'0 0.0
2016-Aug-08 04:33N 32°43' W 117°11'0 0.0
2016-Aug-08 03:30N 32°43' W 117°11'0 0.0
2016-Aug-08 02:33N 32°43' W 117°11'0 0.0
2016-Aug-08 01:27N 32°43' W 117°11'0 0.0
2016-Aug-08 00:33N 32°43' W 117°11'0 0.0
2016-Aug-07 23:30N 32°43' W 117°11'0 0.0
2016-Aug-07 22:33N 32°43' W 117°11'0 0.0
2016-Aug-07 21:30N 32°43' W 117°11'0 0.0
2016-Aug-07 20:33N 32°43' W 117°11'0 0.0
2016-Aug-07 19:33N 32°43' W 117°11'0 0.0
2016-Aug-07 18:30N 32°43' W 117°11'0 0.1
2016-Aug-07 17:15N 32°43' W 117°11'0 0.1
2016-Aug-07 16:31N 32°43' W 117°11'4 3.7
2016-Aug-07 15:33N 32°40' W 117°14'6 5.9
2016-Aug-07 14:32N 32°35' W 117°16'6 5.8
2016-Aug-07 13:33N 32°30' W 117°20'6 5.6
2016-Aug-07 12:33N 32°26' W 117°24'5 5.4
2016-Aug-07 11:33N 32°25' W 117°31'6 5.9
2016-Aug-07 10:33N 32°22' W 117°37'6 5.9
2016-Aug-07 09:32N 32°20' W 117°43'6 6.0
2016-Aug-07 08:33N 32°18' W 117°50'6 5.7
2016-Aug-07 07:33N 32°17' W 117°57'4 3.7
2016-Aug-07 06:32N 32°13' W 117°57'12 5.9
2016-Aug-07 04:32N 32°02' W 117°51'6 5.4
2016-Aug-07 03:28N 31°57' W 117°48'56 1.1
2016-Aug-05 00:15N 31°04' W 118°09'5 6.8
2016-Aug-04 23:32N 31°08' W 118°09'7 6.8
2016-Aug-04 22:33N 31°15' W 118°09'7 7.0
2016-Aug-04 21:31N 31°22' W 118°09'6 6.5
2016-Aug-04 20:33N 31°29' W 118°09'7 6.1
2016-Aug-04 19:28N 31°35' W 118°09'6 6.2
2016-Aug-04 18:33N 31°41' W 118°10'7 6.6
2016-Aug-04 17:33N 31°47' W 118°10'6 6.4
2016-Aug-04 16:33N 31°54' W 118°10'6 6.3
2016-Aug-04 15:33N 32°00' W 118°10'6 6.1
2016-Aug-04 14:33N 32°06' W 118°11'6 5.8
2016-Aug-04 13:33N 32°12' W 118°11'6 6.2
2016-Aug-04 12:33N 32°18' W 118°11'6 6.1
2016-Aug-04 11:33N 32°24' W 118°11'6 6.1
2016-Aug-04 10:33N 32°30' W 118°11'6 6.2
2016-Aug-04 09:33N 32°36' W 118°11'6 6.3
2016-Aug-04 08:32N 32°43' W 118°12'6 6.3
2016-Aug-04 07:33N 32°49' W 118°12'7 6.7
2016-Aug-04 06:33N 32°56' W 118°11'14 6.8
2016-Aug-04 04:32N 33°09' W 118°09'7 6.6
2016-Aug-04 03:33N 33°16' W 118°07'7 6.4
2016-Aug-04 02:30N 33°22' W 118°08'6 6.7
2016-Aug-04 01:33N 33°28' W 118°11'7 6.9
2016-Aug-04 00:33N 33°35' W 118°13'7 6.5
2016-Aug-03 23:33N 33°41' W 118°11'4 3.7
2016-Aug-03 22:33N 33°44' W 118°14'0 0.0
2016-Aug-03 21:33N 33°44' W 118°14'0 0.0
2016-Aug-03 20:33N 33°44' W 118°14'0 0.0
2016-Aug-03 19:30N 33°44' W 118°14'0 0.1
2016-Aug-03 18:30N 33°44' W 118°14'0 0.0
2016-Aug-03 17:33N 33°44' W 118°14'0 0.0
2016-Aug-03 13:09N 33°44' W 118°14'0 0.1
2016-Aug-03 12:27N 33°44' W 118°14'0 0.0
2016-Aug-03 11:32N 33°44' W 118°14'0 0.0
2016-Aug-03 10:32N 33°44' W 118°14'0 0.0
2016-Aug-03 09:32N 33°44' W 118°14'0 0.0
2016-Aug-03 08:32N 33°44' W 118°14'0 0.0
2016-Aug-03 07:29N 33°44' W 118°14'0 0.0
2016-Aug-03 06:32N 33°44' W 118°14'0 0.0
2016-Aug-03 04:29N 33°44' W 118°14'0 0.0
2016-Aug-03 03:32N 33°44' W 118°14'0 0.0
2016-Aug-03 02:32N 33°44' W 118°14'0 0.0
2016-Aug-03 01:32N 33°44' W 118°14'0 0.0
2016-Aug-03 00:29N 33°44' W 118°14'0 0.0
2016-Aug-02 23:32N 33°44' W 118°14'0 0.0
2016-Aug-02 22:32N 33°44' W 118°14'0 0.0
2016-Aug-02 21:32N 33°44' W 118°14'0 0.0
2016-Aug-02 20:32N 33°44' W 118°14'0 0.0
2016-Aug-02 19:32N 33°44' W 118°14'0 0.0
2016-Aug-02 18:32N 33°44' W 118°14'0 0.0
2016-Aug-02 17:23N 33°44' W 118°14'0 0.1
2016-Aug-02 16:29N 33°44' W 118°14'0 0.1
2016-Aug-02 15:23N 33°44' W 118°14'0 0.0
2016-Aug-02 10:26N 33°44' W 118°14'0 0.1
2016-Aug-02 09:26N 33°44' W 118°14'0 0.0
2016-Aug-02 08:32N 33°44' W 118°14'0 0.1
2016-Aug-02 07:32N 33°44' W 118°14'0 0.0
2016-Aug-02 06:32N 33°44' W 118°14'0 0.0
2016-Aug-02 04:32N 33°44' W 118°14'0 0.1
2016-Aug-02 03:32N 33°44' W 118°14'0 0.0
2016-Aug-02 02:32N 33°44' W 118°14'0 0.0
2016-Aug-02 01:31N 33°44' W 118°14'0 0.0
2016-Aug-02 00:31N 33°44' W 118°14'0 0.1
2016-Aug-01 23:31N 33°44' W 118°14'2 2.2
2016-Aug-01 22:29N 33°44' W 118°17'0 0.0
2016-Aug-01 21:32N 33°44' W 118°17'0 0.0
2016-Aug-01 20:32N 33°44' W 118°17'0 0.0
2016-Aug-01 19:29N 33°44' W 118°17'0 0.1
2016-Aug-01 18:31N 33°44' W 118°16'0 0.0
2016-Aug-01 17:31N 33°44' W 118°16'0 0.0
2016-Aug-01 16:31N 33°44' W 118°16'2 2.1
2016-Aug-01 15:32N 33°44' W 118°14'0 0.0
2016-Aug-01 14:04N 33°44' W 118°14'0 0.1
2016-Aug-01 13:31N 33°44' W 118°14'0 0.0
2016-Aug-01 12:31N 33°44' W 118°14'0 0.0
2016-Aug-01 11:31N 33°44' W 118°14'0 0.0
2016-Aug-01 10:28N 33°44' W 118°14'0 0.0
2016-Aug-01 09:28N 33°44' W 118°14'0 0.0
2016-Aug-01 08:31N 33°44' W 118°14'0 0.0
2016-Aug-01 07:31N 33°44' W 118°14'0 0.0
2016-Aug-01 04:31N 33°44' W 118°14'0 0.1
2016-Aug-01 03:31N 33°44' W 118°14'0 0.0
2016-Aug-01 02:31N 33°44' W 118°14'0 0.0
2016-Aug-01 01:31N 33°44' W 118°14'0 0.0
2016-Aug-01 00:31N 33°44' W 118°14'0 0.0
2016-Jul-31 23:31N 33°44' W 118°14'2 2.3
2016-Jul-31 22:31N 33°46' W 118°13'0 0.0
2016-Jul-31 21:31N 33°46' W 118°13'  
Track history (hours):
 
Tides and Currents Weather Stations Pressure Air Temp Water Temp Dewpoint Dewpoint Depression Visibility Wind Speed Wind Dir Waves Ship Positions

Adriatic Sea

Owner: Kirby Offshore Marine, LLC, Seattle, WA. More information available from US FCC via Universal Licensing System and Coast Guard Vessel Documentation Center.

Last reported at 2016-Aug-10 21:08 UTC. Time now 2016-Aug-30 07:28 UTC.
Position N 32°15' W 117°23'.
Warning: this ship's position is 19 days out of date.

Length 42 m; draft 4.7 m.

Type: . MMSI: 366910890.

Date/timePositionNaut miles runAvg speedWind from/ knotsBaromVisibWave heightAir tempDewpointWater temp
2016-Aug-10 21:08N 32°15' W 117°23'6 6.8
2016-Aug-10 20:17N 32°21' W 117°22'5 7.3
2016-Aug-10 19:33N 32°26' W 117°22'14 7.0
2016-Aug-10 17:33N 32°39' W 117°13'5 5.0
2016-Aug-10 16:33N 32°43' W 117°11'0 0.1
2016-Aug-10 15:33N 32°43' W 117°11'0 0.1
2016-Aug-10 14:33N 32°43' W 117°11'0 0.1
2016-Aug-10 13:33N 32°43' W 117°11'0 0.1
2016-Aug-10 12:33N 32°43' W 117°11'0 0.1
2016-Aug-10 11:33N 32°43' W 117°11'0 0.0
2016-Aug-10 10:33N 32°43' W 117°11'0 0.1
2016-Aug-10 09:33N 32°43' W 117°11'0 0.1
2016-Aug-10 08:33N 32°43' W 117°11'0 0.0
2016-Aug-10 07:33N 32°43' W 117°11'0 0.1
2016-Aug-10 06:33N 32°43' W 117°11'0 0.1
2016-Aug-10 04:30N 32°43' W 117°11'0 0.0
2016-Aug-10 03:33N 32°43' W 117°11'0 0.0
2016-Aug-10 02:33N 32°43' W 117°11'0 0.0
2016-Aug-10 01:33N 32°43' W 117°11'0 0.0
2016-Aug-10 00:33N 32°43' W 117°11'0 0.0
2016-Aug-09 23:33N 32°43' W 117°11'0 0.0
2016-Aug-09 22:33N 32°43' W 117°11'0 0.0
2016-Aug-09 21:33N 32°43' W 117°11'0 0.0
2016-Aug-09 20:33N 32°43' W 117°11'0 0.1
2016-Aug-09 19:33N 32°43' W 117°11'0 0.0
2016-Aug-09 18:33N 32°43' W 117°11'0 0.0
2016-Aug-09 15:31N 32°43' W 117°11'0 0.0
2016-Aug-09 14:31N 32°43' W 117°11'0 0.1
2016-Aug-09 13:31N 32°43' W 117°11'0 0.1
2016-Aug-09 12:31N 32°43' W 117°11'0 0.1
2016-Aug-09 11:31N 32°43' W 117°11'0 0.1
2016-Aug-09 10:31N 32°43' W 117°11'0 0.1
2016-Aug-09 09:31N 32°43' W 117°11'0 0.0
2016-Aug-09 08:28N 32°43' W 117°11'0 0.0
2016-Aug-09 07:31N 32°43' W 117°11'0 0.0
2016-Aug-09 04:31N 32°43' W 117°11'0 0.0
2016-Aug-09 03:31N 32°43' W 117°11'0 0.1
2016-Aug-09 02:31N 32°43' W 117°11'0 0.0
2016-Aug-09 01:28N 32°43' W 117°11'0 0.0
2016-Aug-09 00:31N 32°43' W 117°11'0 0.0
2016-Aug-08 23:31N 32°43' W 117°11'0 0.0
2016-Aug-08 22:31N 32°43' W 117°11'0 0.0
2016-Aug-08 21:25N 32°43' W 117°11'0 0.0
2016-Aug-08 20:31N 32°43' W 117°11'0 0.1
2016-Aug-08 19:31N 32°43' W 117°11'0 0.0
2016-Aug-08 18:34N 32°43' W 117°11'0 0.0
2016-Aug-08 17:33N 32°43' W 117°11'0 0.0
2016-Aug-08 16:30N 32°43' W 117°11'0 0.0
2016-Aug-08 15:30N 32°43' W 117°11'0 0.0
2016-Aug-08 14:33N 32°43' W 117°11'0 0.0
2016-Aug-08 13:18N 32°43' W 117°11'0 0.0
2016-Aug-08 12:33N 32°43' W 117°11'0 0.0
2016-Aug-08 11:30N 32°43' W 117°11'0 0.1
2016-Aug-08 10:33N 32°43' W 117°11'0 0.0
2016-Aug-08 09:33N 32°43' W 117°11'0 0.0
2016-Aug-08 08:33N 32°43' W 117°11'0 0.1
2016-Aug-08 07:33N 32°43' W 117°11'0 0.0
2016-Aug-08 06:30N 32°43' W 117°11'0 0.1
2016-Aug-08 05:33N 32°43' W 117°11'0 0.0
2016-Aug-08 04:33N 32°43' W 117°11'0 0.0
2016-Aug-08 03:30N 32°43' W 117°11'0 0.0
2016-Aug-08 02:33N 32°43' W 117°11'0 0.0
2016-Aug-08 01:27N 32°43' W 117°11'0 0.0
2016-Aug-08 00:33N 32°43' W 117°11'0 0.0
2016-Aug-07 23:30N 32°43' W 117°11'0 0.0
2016-Aug-07 22:33N 32°43' W 117°11'0 0.0
2016-Aug-07 21:30N 32°43' W 117°11'0 0.0
2016-Aug-07 20:33N 32°43' W 117°11'0 0.0
2016-Aug-07 19:33N 32°43' W 117°11'0 0.0
2016-Aug-07 18:30N 32°43' W 117°11'0 0.1
2016-Aug-07 17:15N 32°43' W 117°11'0 0.1
2016-Aug-07 16:31N 32°43' W 117°11'4 3.7
2016-Aug-07 15:33N 32°40' W 117°14'6 5.9
2016-Aug-07 14:32N 32°35' W 117°16'6 5.8
2016-Aug-07 13:33N 32°30' W 117°20'6 5.6
2016-Aug-07 12:33N 32°26' W 117°24'5 5.4
2016-Aug-07 11:33N 32°25' W 117°31'6 5.9
2016-Aug-07 10:33N 32°22' W 117°37'6 5.9
2016-Aug-07 09:32N 32°20' W 117°43'6 6.0
2016-Aug-07 08:33N 32°18' W 117°50'6 5.7
2016-Aug-07 07:33N 32°17' W 117°57'4 3.7
2016-Aug-07 06:32N 32°13' W 117°57'12 5.9
2016-Aug-07 04:32N 32°02' W 117°51'6 5.4
2016-Aug-07 03:28N 31°57' W 117°48'56 1.1
2016-Aug-05 00:15N 31°04' W 118°09'5 6.8
2016-Aug-04 23:32N 31°08' W 118°09'7 6.8
2016-Aug-04 22:33N 31°15' W 118°09'7 7.0
2016-Aug-04 21:31N 31°22' W 118°09'6 6.5
2016-Aug-04 20:33N 31°29' W 118°09'7 6.1
2016-Aug-04 19:28N 31°35' W 118°09'6 6.2
2016-Aug-04 18:33N 31°41' W 118°10'7 6.6
2016-Aug-04 17:33N 31°47' W 118°10'6 6.4
2016-Aug-04 16:33N 31°54' W 118°10'6 6.3
2016-Aug-04 15:33N 32°00' W 118°10'6 6.1
2016-Aug-04 14:33N 32°06' W 118°11'6 5.8
2016-Aug-04 13:33N 32°12' W 118°11'6 6.2
2016-Aug-04 12:33N 32°18' W 118°11'6 6.1
2016-Aug-04 11:33N 32°24' W 118°11'6 6.1
2016-Aug-04 10:33N 32°30' W 118°11'6 6.2
2016-Aug-04 09:33N 32°36' W 118°11'6 6.3
2016-Aug-04 08:32N 32°43' W 118°12'6 6.3
2016-Aug-04 07:33N 32°49' W 118°12'7 6.7
2016-Aug-04 06:33N 32°56' W 118°11'14 6.8
2016-Aug-04 04:32N 33°09' W 118°09'7 6.6
2016-Aug-04 03:33N 33°16' W 118°07'7 6.4
2016-Aug-04 02:30N 33°22' W 118°08'6 6.7
2016-Aug-04 01:33N 33°28' W 118°11'7 6.9
2016-Aug-04 00:33N 33°35' W 118°13'7 6.5
2016-Aug-03 23:33N 33°41' W 118°11'4 3.7
2016-Aug-03 22:33N 33°44' W 118°14'0 0.0
2016-Aug-03 21:33N 33°44' W 118°14'0 0.0
2016-Aug-03 20:33N 33°44' W 118°14'0 0.0
2016-Aug-03 19:30N 33°44' W 118°14'0 0.1
2016-Aug-03 18:30N 33°44' W 118°14'0 0.0
2016-Aug-03 17:33N 33°44' W 118°14'0 0.0
2016-Aug-03 13:09N 33°44' W 118°14'0 0.1
2016-Aug-03 12:27N 33°44' W 118°14'0 0.0
2016-Aug-03 11:32N 33°44' W 118°14'0 0.0
2016-Aug-03 10:32N 33°44' W 118°14'0 0.0
2016-Aug-03 09:32N 33°44' W 118°14'0 0.0
2016-Aug-03 08:32N 33°44' W 118°14'0 0.0
2016-Aug-03 07:29N 33°44' W 118°14'0 0.0
2016-Aug-03 06:32N 33°44' W 118°14'0 0.0
2016-Aug-03 04:29N 33°44' W 118°14'0 0.0
2016-Aug-03 03:32N 33°44' W 118°14'0 0.0
2016-Aug-03 02:32N 33°44' W 118°14'0 0.0
2016-Aug-03 01:32N 33°44' W 118°14'0 0.0
2016-Aug-03 00:29N 33°44' W 118°14'0 0.0
2016-Aug-02 23:32N 33°44' W 118°14'0 0.0
2016-Aug-02 22:32N 33°44' W 118°14'0 0.0
2016-Aug-02 21:32N 33°44' W 118°14'0 0.0
2016-Aug-02 20:32N 33°44' W 118°14'0 0.0
2016-Aug-02 19:32N 33°44' W 118°14'0 0.0
2016-Aug-02 18:32N 33°44' W 118°14'0 0.0
2016-Aug-02 17:23N 33°44' W 118°14'0 0.1
2016-Aug-02 16:29N 33°44' W 118°14'0 0.1
2016-Aug-02 15:23N 33°44' W 118°14'0 0.0
2016-Aug-02 10:26N 33°44' W 118°14'0 0.1
2016-Aug-02 09:26N 33°44' W 118°14'0 0.0
2016-Aug-02 08:32N 33°44' W 118°14'0 0.1
2016-Aug-02 07:32N 33°44' W 118°14'0 0.0
2016-Aug-02 06:32N 33°44' W 118°14'0 0.0
2016-Aug-02 04:32N 33°44' W 118°14'0 0.1
2016-Aug-02 03:32N 33°44' W 118°14'0 0.0
2016-Aug-02 02:32N 33°44' W 118°14'0 0.0
2016-Aug-02 01:31N 33°44' W 118°14'0 0.0
2016-Aug-02 00:31N 33°44' W 118°14'0 0.1
2016-Aug-01 23:31N 33°44' W 118°14'2 2.2
2016-Aug-01 22:29N 33°44' W 118°17'0 0.0
2016-Aug-01 21:32N 33°44' W 118°17'0 0.0
2016-Aug-01 20:32N 33°44' W 118°17'0 0.0
2016-Aug-01 19:29N 33°44' W 118°17'0 0.1
2016-Aug-01 18:31N 33°44' W 118°16'0 0.0
2016-Aug-01 17:31N 33°44' W 118°16'0 0.0
2016-Aug-01 16:31N 33°44' W 118°16'2 2.1
2016-Aug-01 15:32N 33°44' W 118°14'0 0.0
2016-Aug-01 14:04N 33°44' W 118°14'0 0.1
2016-Aug-01 13:31N 33°44' W 118°14'0 0.0
2016-Aug-01 12:31N 33°44' W 118°14'0 0.0
2016-Aug-01 11:31N 33°44' W 118°14'0 0.0
2016-Aug-01 10:28N 33°44' W 118°14'0 0.0
2016-Aug-01 09:28N 33°44' W 118°14'0 0.0
2016-Aug-01 08:31N 33°44' W 118°14'0 0.0
2016-Aug-01 07:31N 33°44' W 118°14'0 0.0
2016-Aug-01 04:31N 33°44' W 118°14'0 0.1
2016-Aug-01 03:31N 33°44' W 118°14'0 0.0
2016-Aug-01 02:31N 33°44' W 118°14'0 0.0
2016-Aug-01 01:31N 33°44' W 118°14'0 0.0
2016-Aug-01 00:31N 33°44' W 118°14'0 0.0
2016-Jul-31 23:31N 33°44' W 118°14'2 2.3
2016-Jul-31 22:31N 33°46' W 118°13'0 0.0
2016-Jul-31 21:31N 33°46' W 118°13'  

Dump ship's entire track history